Time;durP1;ratioP1;P1;durP2;ratioP2;P2;SDS_P1;SDS_P2;PMS_P1;PMS_P2;Temp;Humidity;BMP_temperature;BMP_pressure;BME280_temperature;BME280_humidity;BME280_pressure;Samples;Min_cycle;Max_cycle;Signal;HPM_P1;HPM_P2
2023/09/19 00:07:32;;;;;;;;;;;15.90;99.90;;;;;;6671530;88;20049;-77
2023/09/19 00:17:34;;;;;;;;;;;15.90;99.90;;;;;;6669119;88;20093;-76
2023/09/19 00:27:35;;;;;;;;;;;15.80;99.90;;;;;;6670197;88;20095;-76
2023/09/19 00:37:36;;;;;;;;;;;15.80;99.90;;;;;;6673787;88;20069;-76
2023/09/19 00:47:37;;;;;;;;;;;15.80;99.90;;;;;;6668842;88;20550;-77
2023/09/19 00:57:38;;;;;;;;;;;15.90;99.90;;;;;;6671392;88;20849;-76
2023/09/19 01:07:41;;;;;;;;;;;15.50;99.90;;;;;;6670711;88;20088;-78
2023/09/19 01:18:02;;;;;;;;;;;15.40;99.90;;;;;;6668820;88;20056;-76
2023/09/19 01:28:41;;;;;;;;;;;15.40;99.90;;;;;;6666885;88;20091;-77
2023/09/19 01:38:42;;;;;;;;;;;15.60;99.90;;;;;;6647509;88;20060;-76
2023/09/19 01:49:03;;;;;;;;;;;15.70;99.90;;;;;;6671812;88;20081;-77
2023/09/19 01:59:10;;;;;;;;;;;15.70;99.90;;;;;;6668179;88;20536;-79
2023/09/19 02:09:10;;;;;;;;;;;15.90;99.90;;;;;;6672564;88;20065;-78
2023/09/19 02:19:10;;;;;;;;;;;16.00;99.90;;;;;;6673962;88;20176;-79
2023/09/19 02:29:12;;;;;;;;;;;16.00;99.90;;;;;;6670067;88;20175;-76
2023/09/19 02:39:13;;;;;;;;;;;15.90;99.90;;;;;;6667936;88;20140;-78
2023/09/19 02:49:14;;;;;;;;;;;15.70;99.90;;;;;;6666531;89;20167;-78
2023/09/19 02:59:14;;;;;;;;;;;15.60;99.90;;;;;;6667687;88;20077;-77
2023/09/19 03:09:15;;;;;;;;;;;15.40;99.90;;;;;;6665436;89;20156;-77
2023/09/19 03:19:16;;;;;;;;;;;15.30;99.90;;;;;;6662968;88;20060;-77
2023/09/19 03:29:17;;;;;;;;;;;15.10;99.90;;;;;;6668839;88;20580;-76
2023/09/19 03:39:17;;;;;;;;;;;14.90;99.90;;;;;;6674859;88;20143;-78
2023/09/19 03:49:19;;;;;;;;;;;14.70;99.90;;;;;;6667098;89;20064;-77
2023/09/19 03:59:19;;;;;;;;;;;14.60;99.90;;;;;;6672405;88;20073;-77
2023/09/19 04:09:19;;;;;;;;;;;14.40;99.90;;;;;;6680614;88;20139;-76
2023/09/19 04:19:22;;;;;;;;;;;14.40;99.90;;;;;;6670628;88;20170;-77
2023/09/19 04:29:22;;;;;;;;;;;14.60;99.90;;;;;;6676860;88;20522;-79
2023/09/19 04:39:26;;;;;;;;;;;14.60;99.90;;;;;;6675967;88;20074;-79
2023/09/19 04:49:26;;;;;;;;;;;14.70;99.90;;;;;;6673383;88;20056;-77
2023/09/19 04:59:28;;;;;;;;;;;14.60;99.90;;;;;;6676145;88;20058;-79
2023/09/19 05:09:28;;;;;;;;;;;14.60;99.90;;;;;;6677127;88;20592;-78
2023/09/19 05:19:29;;;;;;;;;;;14.50;99.90;;;;;;6663075;88;20194;-78
2023/09/19 05:29:29;;;;;;;;;;;14.40;99.90;;;;;;6653530;88;20153;-77
2023/09/19 05:39:30;;;;;;;;;;;14.20;99.90;;;;;;6649349;88;20089;-78
2023/09/19 05:49:30;;;;;;;;;;;14.30;99.90;;;;;;6655424;88;20093;-76
2023/09/19 05:59:31;;;;;;;;;;;14.30;99.90;;;;;;6648080;89;20119;-77
2023/09/19 06:09:32;;;;;;;;;;;14.40;99.90;;;;;;6640896;88;20540;-77
2023/09/19 06:19:32;;;;;;;;;;;14.30;99.90;;;;;;6653641;88;20238;-77
2023/09/19 06:29:33;;;;;;;;;;;14.50;99.90;;;;;;6669177;89;20057;-77
2023/09/19 06:39:34;;;;;;;;;;;14.50;99.90;;;;;;6663637;88;20067;-76
2023/09/19 06:49:35;;;;;;;;;;;14.70;99.90;;;;;;6661850;88;20077;-76
2023/09/19 06:59:37;;;;;;;;;;;14.80;99.90;;;;;;6667319;89;20089;-77
2023/09/19 07:09:37;;;;;;;;;;;15.00;99.90;;;;;;6659261;88;20054;-77
2023/09/19 07:19:37;;;;;;;;;;;15.30;99.90;;;;;;6658180;89;20108;-78
2023/09/19 07:29:39;;;;;;;;;;;15.60;99.90;;;;;;6656838;88;20091;-78
2023/09/19 07:39:41;;;;;;;;;;;15.70;99.90;;;;;;6682088;88;20080;-78
2023/09/19 07:49:42;;;;;;;;;;;16.10;99.90;;;;;;6664098;88;20229;-79
2023/09/19 07:59:43;;;;;;;;;;;16.40;99.90;;;;;;6668514;88;20889;-79
2023/09/19 08:09:48;;;;;;;;;;;17.20;99.90;;;;;;6676820;88;20093;-78
2023/09/19 08:19:52;;;;;;;;;;;17.40;99.90;;;;;;6669099;88;20099;-79
2023/09/19 08:29:53;;;;;;;;;;;17.70;99.90;;;;;;6671286;88;20058;-77
2023/09/19 08:39:53;;;;;;;;;;;18.10;99.90;;;;;;6657751;88;20077;-79
2023/09/19 08:50:02;;;;;;;;;;;17.90;99.90;;;;;;6656478;88;20074;-79
2023/09/19 09:00:09;;;;;;;;;;;18.30;99.90;;;;;;6674878;88;20047;-79
2023/09/19 09:10:10;;;;;;;;;;;18.80;99.90;;;;;;6675463;88;20234;-78
2023/09/19 09:20:11;;;;;;;;;;;18.90;99.90;;;;;;6668185;88;20479;-77
2023/09/19 09:30:31;;;;;;;;;;;19.50;99.90;;;;;;6664347;88;20071;-78
2023/09/19 09:40:45;;;;;;;;;;;19.90;99.90;;;;;;6670365;88;20600;-79
2023/09/19 09:50:56;;;;;;;;;;;19.80;99.90;;;;;;6667489;88;20093;-78
2023/09/19 10:00:59;;;;;;;;;;;19.60;99.90;;;;;;6683979;88;20248;-78
2023/09/19 10:11:06;;;;;;;;;;;19.90;99.90;;;;;;6670729;88;20159;-78
2023/09/19 10:21:08;;;;;;;;;;;20.50;99.90;;;;;;6660999;89;20116;-78
2023/09/19 10:31:14;;;;;;;;;;;21.30;99.90;;;;;;6651745;88;20057;-78
2023/09/19 10:41:15;;;;;;;;;;;21.30;99.90;;;;;;6675135;88;20546;-78
2023/09/19 10:51:19;;;;;;;;;;;21.60;99.90;;;;;;6651129;89;20087;-79
2023/09/19 11:01:20;;;;;;;;;;;21.70;99.90;;;;;;6673557;88;20516;-79
2023/09/19 11:11:39;;;;;;;;;;;22.90;99.90;;;;;;6701028;88;20532;-78
2023/09/19 11:21:42;;;;;;;;;;;22.60;99.90;;;;;;6704749;88;20122;-80
2023/09/19 11:31:45;;;;;;;;;;;22.30;99.90;;;;;;6668939;89;20109;-78
2023/09/19 11:41:52;;;;;;;;;;;22.50;99.90;;;;;;6673613;88;20049;-79
2023/09/19 11:51:52;;;;;;;;;;;22.40;99.90;;;;;;6669390;89;20057;-82
2023/09/19 12:01:57;;;;;;;;;;;22.10;98.90;;;;;;6668558;88;20056;-80
2023/09/19 12:11:58;;;;;;;;;;;22.60;98.80;;;;;;6671183;88;20069;-79
2023/09/19 12:21:59;;;;;;;;;;;23.10;98.50;;;;;;6676175;89;20521;-79
2023/09/19 12:32:03;;;;;;;;;;;23.60;97.80;;;;;;6690191;89;20138;-81
2023/09/19 12:42:08;;;;;;;;;;;24.30;95.70;;;;;;6733744;88;20573;-80
2023/09/19 12:52:10;;;;;;;;;;;23.10;96.20;;;;;;6706684;88;20080;-81
2023/09/19 13:02:18;;;;;;;;;;;24.10;95.80;;;;;;6675560;89;20565;-81
2023/09/19 13:12:36;;;;;;;;;;;23.10;96.20;;;;;;6668511;89;20081;-80
2023/09/19 13:22:40;;;;;;;;;;;23.10;96.60;;;;;;6676918;88;20114;-80
2023/09/19 13:32:42;;;;;;;;;;;23.30;96.10;;;;;;6683928;89;20069;-79
2023/09/19 13:42:43;;;;;;;;;;;22.30;97.50;;;;;;6678086;89;20060;-78
2023/09/19 13:52:43;;;;;;;;;;;22.20;97.50;;;;;;6669370;88;20065;-80
2023/09/19 14:02:45;;;;;;;;;;;22.40;97.90;;;;;;6666360;89;20109;-80
2023/09/19 14:12:46;;;;;;;;;;;22.60;96.80;;;;;;6671134;89;20354;-80
2023/09/19 14:22:46;;;;;;;;;;;22.90;97.20;;;;;;6670275;89;20060;-80
2023/09/19 14:32:47;;;;;;;;;;;23.00;97.30;;;;;;6679067;89;20030;-81
2023/09/19 14:42:48;;;;;;;;;;;22.70;97.20;;;;;;6672881;88;20114;-81
2023/09/19 14:52:51;;;;;;;;;;;23.50;96.40;;;;;;6677412;88;20081;-79
2023/09/19 15:02:52;;;;;;;;;;;23.10;96.30;;;;;;6665928;88;20122;-80
2023/09/19 15:12:53;;;;;;;;;;;22.60;96.10;;;;;;6665016;88;20057;-82
2023/09/19 15:22:53;;;;;;;;;;;22.30;97.00;;;;;;6675670;88;20118;-82
2023/09/19 15:32:54;;;;;;;;;;;22.00;97.40;;;;;;6665860;88;20101;-78
2023/09/19 15:42:56;;;;;;;;;;;22.00;97.00;;;;;;6665478;88;20057;-78
2023/09/19 15:52:57;;;;;;;;;;;21.80;98.00;;;;;;6666918;88;20141;-79
2023/09/19 16:02:58;;;;;;;;;;;21.50;98.40;;;;;;6667320;88;20074;-81
2023/09/19 16:12:58;;;;;;;;;;;21.10;99.00;;;;;;6668699;88;20057;-80
2023/09/19 16:22:59;;;;;;;;;;;20.90;99.10;;;;;;6668383;88;20194;-77
2023/09/19 16:33:00;;;;;;;;;;;20.70;99.80;;;;;;6676633;88;20048;-77
2023/09/19 16:43:01;;;;;;;;;;;20.90;99.90;;;;;;6678285;88;20063;-79
2023/09/19 16:53:01;;;;;;;;;;;20.50;99.90;;;;;;6671106;88;20120;-80
2023/09/19 17:03:03;;;;;;;;;;;20.30;99.90;;;;;;6671568;88;20555;-79
2023/09/19 17:13:07;;;;;;;;;;;20.10;99.90;;;;;;6676812;88;20083;-79
2023/09/19 17:23:08;;;;;;;;;;;20.00;99.90;;;;;;6671567;88;20128;-78
2023/09/19 17:33:08;;;;;;;;;;;19.70;99.90;;;;;;6672636;88;20083;-80
2023/09/19 17:43:09;;;;;;;;;;;19.40;99.90;;;;;;6678395;88;20226;-78
2023/09/19 17:53:11;;;;;;;;;;;19.10;99.90;;;;;;6671977;88;20239;-80
2023/09/19 18:03:11;;;;;;;;;;;19.00;99.90;;;;;;6667262;88;20080;-79
2023/09/19 18:13:12;;;;;;;;;;;18.90;99.90;;;;;;6667447;88;20120;-79
2023/09/19 18:23:12;;;;;;;;;;;18.70;99.90;;;;;;6674089;88;20134;-78
2023/09/19 18:33:13;;;;;;;;;;;18.60;99.90;;;;;;6663571;88;20188;-77
2023/09/19 18:43:16;;;;;;;;;;;18.40;99.90;;;;;;6666873;88;20061;-78
2023/09/19 18:53:17;;;;;;;;;;;18.50;99.90;;;;;;6660417;88;20556;-77
2023/09/19 19:03:18;;;;;;;;;;;18.20;99.90;;;;;;6675021;88;20166;-78
2023/09/19 19:13:18;;;;;;;;;;;18.20;99.90;;;;;;6664152;88;20064;-77
2023/09/19 19:23:19;;;;;;;;;;;18.20;99.90;;;;;;6666053;88;20084;-77
2023/09/19 19:33:21;;;;;;;;;;;18.10;99.90;;;;;;6675005;88;20646;-77
2023/09/19 19:43:22;;;;;;;;;;;18.10;99.90;;;;;;6666460;88;20101;-78
2023/09/19 19:53:25;;;;;;;;;;;18.20;99.90;;;;;;6665306;88;20650;-82
2023/09/19 20:03:26;;;;;;;;;;;18.30;99.90;;;;;;6667558;89;20081;-80
2023/09/19 20:13:27;;;;;;;;;;;18.30;99.90;;;;;;6665567;88;20070;-80
2023/09/19 20:23:27;;;;;;;;;;;18.30;99.90;;;;;;6671438;88;20060;-78
2023/09/19 20:33:28;;;;;;;;;;;18.30;99.90;;;;;;6677172;88;20551;-77
2023/09/19 20:43:32;;;;;;;;;;;18.20;99.90;;;;;;6674565;88;20060;-78
2023/09/19 20:53:32;;;;;;;;;;;18.20;99.90;;;;;;6677557;88;20095;-79
2023/09/19 21:03:34;;;;;;;;;;;18.20;99.90;;;;;;6676007;88;20616;-79
2023/09/19 21:24:20;;;;;;;;;;;18.30;99.90;;;;;;6752321;88;20503;-80
2023/09/19 21:34:21;;;;;;;;;;;18.30;99.90;;;;;;6723296;88;20084;-79
2023/09/19 21:44:21;;;;;;;;;;;18.40;99.90;;;;;;6742507;88;20510;-79
2023/09/19 21:54:22;;;;;;;;;;;18.30;99.90;;;;;;6736357;88;20220;-78
2023/09/19 22:04:22;;;;;;;;;;;18.40;99.90;;;;;;6745830;88;20186;-79
2023/09/19 22:14:28;;;;;;;;;;;18.30;99.90;;;;;;6752994;87;20074;-77
2023/09/19 22:24:30;;;;;;;;;;;18.20;99.90;;;;;;6758167;88;20199;-78
2023/09/19 22:34:30;;;;;;;;;;;18.10;99.90;;;;;;6755980;88;20057;-79
2023/09/19 22:44:32;;;;;;;;;;;18.00;99.90;;;;;;6734309;88;20069;-78
2023/09/19 22:54:36;;;;;;;;;;;18.00;99.90;;;;;;6743886;88;20129;-78
2023/09/19 23:04:37;;;;;;;;;;;18.00;99.90;;;;;;6755315;88;20167;-77
2023/09/19 23:14:38;;;;;;;;;;;17.80;99.90;;;;;;6741888;88;20072;-78
2023/09/19 23:24:40;;;;;;;;;;;17.60;99.90;;;;;;6666879;88;20555;-78
2023/09/19 23:34:41;;;;;;;;;;;17.50;99.90;;;;;;6686784;88;20064;-79
2023/09/19 23:44:41;;;;;;;;;;;17.40;99.90;;;;;;6670947;88;20060;-79
2023/09/19 23:54:43;;;;;;;;;;;17.20;99.90;;;;;;6677325;89;20071;-80
